Terminal Aerodrome Forecast
Issued by NWS

Home | Current Version | Previous Version | Text Only | Print | Product List | Glossary Off
Versions: 1 2 3 4 5 6 7 8 9 10 11 12 13 14 15 16 17 18 19 20 21 22

000
FTUS43 KGRB 262104 AAE
TAFRHI
TAF AMD
KRHI 262104Z 2621/2718 23012G20KT P6SM VCSH SCT025 OVC035
      TEMPO 2621/2623 1SM -SHSN SCT009 OVC015
     FM270000 28007KT P6SM VCSH SCT025 BKN035
     FM270200 29004KT P6SM SCT050 BKN100
     FM271300 16004KT P6SM BKN090=

USA.gov is the U.S. government's official web portal to all federal, state and local government web resources and services.